createdAt,value
2023-01-31T00:00:53.351Z,77.62
2023-01-31T00:05:54.021Z,76.12
2023-01-31T00:10:59.508Z,76.07
2023-01-31T00:16:00.462Z,75.87
2023-01-31T00:21:06.899Z,76.53
2023-01-31T00:26:11.600Z,76.16
2023-01-31T00:31:13.706Z,75.39
2023-01-31T00:36:16.552Z,74.64
2023-01-31T00:41:21.433Z,74.84
2023-01-31T00:46:23.799Z,74.70
2023-01-31T00:51:27.028Z,74.58
2023-01-31T00:56:29.233Z,74.92
2023-01-31T01:01:30.434Z,75.30
2023-01-31T01:06:31.471Z,74.94
2023-01-31T01:11:36.053Z,74.11
2023-01-31T01:16:39.299Z,73.92
2023-01-31T01:21:41.166Z,73.52
2023-01-31T01:26:44.050Z,73.28
2023-01-31T01:31:44.829Z,73.54
2023-01-31T01:36:48.025Z,74.00
2023-01-31T01:41:51.530Z,76.15
2023-01-31T01:46:53.195Z,77.72
2023-01-31T01:51:58.170Z,79.05
2023-01-31T01:57:04.519Z,79.47
2023-01-31T02:02:06.071Z,79.00
2023-01-31T02:07:10.109Z,78.57
2023-01-31T02:12:12.947Z,79.61
2023-01-31T02:17:14.883Z,78.79
2023-01-31T02:22:22.773Z,78.71
2023-01-31T02:27:43.707Z,78.89
2023-01-31T02:32:54.620Z,77.87
2023-01-31T02:38:09.587Z,76.81
2023-01-31T02:43:16.991Z,75.32
2023-01-31T02:48:29.984Z,74.86
2023-01-31T02:53:33.677Z,74.74
2023-01-31T02:58:40.456Z,73.69
2023-01-31T03:03:42.924Z,73.48
2023-01-31T03:08:45.847Z,73.27
2023-01-31T03:13:57.808Z,73.50
2023-01-31T03:19:13.885Z,73.95
2023-01-31T03:24:18.192Z,75.00
2023-01-31T03:29:19.981Z,75.44
2023-01-31T03:34:23.716Z,76.71
2023-01-31T03:39:36.183Z,78.19
2023-01-31T03:44:43.489Z,78.15
2023-01-31T03:49:47.380Z,78.51
2023-01-31T03:55:04.540Z,79.61
2023-01-31T04:00:09.346Z,80.72
2023-01-31T04:05:21.219Z,81.65
2023-01-31T04:10:27.159Z,81.98
2023-01-31T04:15:27.950Z,82.04
2023-01-31T04:20:30.077Z,81.79
2023-01-31T04:25:32.754Z,81.51
2023-01-31T04:30:34.136Z,82.65
2023-01-31T04:35:36.591Z,83.56
2023-01-31T04:40:37.311Z,84.10
2023-01-31T04:45:37.957Z,84.10
2023-01-31T04:50:39.955Z,83.52
2023-01-31T04:55:40.599Z,82.66
2023-01-31T05:00:41.282Z,81.14
2023-01-31T05:05:43.314Z,79.56
2023-01-31T05:10:44.809Z,78.21
2023-01-31T05:15:49.289Z,77.86
2023-01-31T05:20:51.281Z,77.59
2023-01-31T05:25:51.935Z,77.53
2023-01-31T05:30:53.062Z,77.25
2023-01-31T05:35:55.460Z,77.28
2023-01-31T05:40:56.129Z,77.68
2023-01-31T05:45:56.905Z,77.31
2023-01-31T05:50:58.974Z,77.90
2023-01-31T05:55:59.904Z,78.75
2023-01-31T06:01:01.118Z,80.03
2023-01-31T06:06:05.162Z,80.43
2023-01-31T06:11:06.838Z,80.49
2023-01-31T06:16:08.880Z,79.15
2023-01-31T06:21:12.183Z,79.94
2023-01-31T06:26:13.000Z,79.17
2023-01-31T06:31:13.944Z,78.73
2023-01-31T06:36:18.943Z,78.61
2023-01-31T06:41:21.048Z,78.63
2023-01-31T06:46:22.072Z,78.94
2023-01-31T06:51:24.300Z,81.22
2023-01-31T06:56:25.124Z,82.09
2023-01-31T07:01:26.764Z,82.04
2023-01-31T07:06:29.008Z,81.72
2023-01-31T07:11:30.160Z,80.99
2023-01-31T07:16:31.282Z,80.29
2023-01-31T07:21:33.479Z,80.01
2023-01-31T07:26:35.042Z,79.57
2023-01-31T07:31:35.866Z,78.50
2023-01-31T07:36:37.914Z,77.12
2023-01-31T07:41:38.624Z,76.56
2023-01-31T07:46:42.105Z,76.66
2023-01-31T07:51:44.210Z,77.75
2023-01-31T07:56:44.971Z,77.09
2023-01-31T08:02:03.162Z,76.68
2023-01-31T08:07:06.975Z,78.43
2023-01-31T08:12:08.606Z,78.84
2023-01-31T08:17:10.320Z,78.30
2023-01-31T08:22:12.571Z,76.10
2023-01-31T08:27:13.217Z,73.49
2023-01-31T08:32:13.957Z,71.82
2023-01-31T08:37:17.422Z,71.64
2023-01-31T08:42:19.201Z,71.16
2023-01-31T08:47:19.883Z,70.38
2023-01-31T08:52:21.947Z,69.24
2023-01-31T08:57:22.626Z,68.62
2023-01-31T09:02:23.575Z,68.54
2023-01-31T09:07:25.718Z,67.41
2023-01-31T09:12:26.455Z,67.50
2023-01-31T09:17:27.126Z,66.93
2023-01-31T09:22:31.508Z,67.11
2023-01-31T09:27:32.257Z,66.88
2023-01-31T09:32:33.438Z,65.75
2023-01-31T09:37:35.472Z,64.56
2023-01-31T09:42:40.117Z,64.04
2023-01-31T09:47:45.274Z,63.98
2023-01-31T09:52:47.346Z,63.20
2023-01-31T09:57:56.713Z,63.44
2023-01-31T10:03:20.945Z,63.22
2023-01-31T10:08:36.739Z,63.42
2023-01-31T10:13:40.166Z,63.54
2023-01-31T10:18:46.664Z,62.37
2023-01-31T10:23:53.906Z,63.21
2023-01-31T10:29:01.419Z,63.43
2023-01-31T10:34:08.007Z,61.92
2023-01-31T10:39:18.614Z,62.67
2023-01-31T10:44:25.580Z,61.73
2023-01-31T10:49:28.100Z,62.40
2023-01-31T10:54:43.889Z,61.26
2023-01-31T10:59:47.654Z,61.82
2023-01-31T11:04:50.889Z,61.65
2023-01-31T11:09:55.639Z,61.45
2023-01-31T11:15:08.065Z,61.63
2023-01-31T11:20:22.267Z,61.01
2023-01-31T11:25:26.850Z,61.00
2023-01-31T11:30:30.512Z,61.09
2023-01-31T11:35:33.028Z,60.67
2023-01-31T11:40:36.800Z,60.53
2023-01-31T11:45:39.659Z,59.79
2023-01-31T11:50:42.227Z,60.16
2023-01-31T11:55:45.427Z,59.58
2023-01-31T12:00:54.566Z,59.18
2023-01-31T12:06:02.269Z,59.35
2023-01-31T12:11:08.148Z,59.23
2023-01-31T12:16:09.015Z,59.47
2023-01-31T12:21:15.657Z,60.03
2023-01-31T12:26:23.332Z,59.92
2023-01-31T12:31:39.183Z,59.82
2023-01-31T12:36:57.002Z,58.81
2023-01-31T12:42:14.383Z,59.72
2023-01-31T12:47:46.360Z,61.54
2023-01-31T12:52:57.054Z,62.61
2023-01-31T12:58:20.137Z,64.87
2023-01-31T13:03:39.041Z,64.92
2023-01-31T13:08:42.348Z,65.42
2023-01-31T13:13:50.138Z,65.75
2023-01-31T13:18:53.391Z,67.26
2023-01-31T13:23:59.512Z,67.40
2023-01-31T13:29:07.031Z,68.45
2023-01-31T13:34:14.798Z,70.60
2023-01-31T13:39:21.991Z,71.68
2023-01-31T13:44:24.026Z,72.33
2023-01-31T13:49:27.862Z,73.60
2023-01-31T13:54:34.072Z,73.20
2023-01-31T13:59:38.667Z,72.69
2023-01-31T14:04:40.582Z,71.67
2023-01-31T14:09:45.835Z,72.10
2023-01-31T14:14:51.267Z,71.86
2023-01-31T14:20:25.917Z,71.92
2023-01-31T14:25:42.525Z,73.03
2023-01-31T14:30:47.689Z,72.65
2023-01-31T14:36:15.250Z,72.31
2023-01-31T14:41:25.936Z,72.27
2023-01-31T14:47:05.831Z,72.27
2023-01-31T14:52:29.404Z,72.98
2023-01-31T14:57:32.828Z,73.68
2023-01-31T15:03:04.231Z,73.84
2023-01-31T15:08:28.067Z,73.73
2023-01-31T15:13:38.586Z,73.40
2023-01-31T15:18:41.819Z,74.16
2023-01-31T15:23:44.319Z,74.09
2023-01-31T15:28:46.115Z,74.87
2023-01-31T15:33:52.392Z,75.31
2023-01-31T15:38:56.866Z,75.50
2023-01-31T15:44:12.938Z,75.66
2023-01-31T15:49:40.022Z,75.42
2023-01-31T15:54:53.384Z,75.77
2023-01-31T15:59:55.094Z,75.83
2023-01-31T16:04:57.942Z,76.85
2023-01-31T16:10:02.002Z,77.10
2023-01-31T16:15:07.001Z,77.47
2023-01-31T16:20:38.245Z,77.27
2023-01-31T16:25:39.116Z,77.00
2023-01-31T16:30:41.477Z,76.73
2023-01-31T16:35:44.179Z,76.33
2023-01-31T16:40:48.884Z,76.44
2023-01-31T16:45:54.206Z,75.96
2023-01-31T16:50:58.858Z,76.26
2023-01-31T16:56:19.921Z,75.55
2023-01-31T17:01:23.710Z,76.29
2023-01-31T17:06:25.865Z,75.57
2023-01-31T17:11:41.655Z,76.45
2023-01-31T17:16:43.592Z,76.53
2023-01-31T17:21:46.069Z,76.83
2023-01-31T17:26:46.957Z,77.88
2023-01-31T17:31:47.750Z,77.33
2023-01-31T17:36:49.784Z,77.18
2023-01-31T17:41:51.527Z,77.34
2023-01-31T17:46:52.189Z,77.14
2023-01-31T17:51:54.249Z,77.08
2023-01-31T17:56:55.265Z,77.10
2023-01-31T18:01:56.174Z,76.70
2023-01-31T18:06:58.312Z,76.55
2023-01-31T18:11:59.011Z,76.22
2023-01-31T18:16:59.683Z,74.91
2023-01-31T18:22:01.719Z,75.12
2023-01-31T18:27:02.408Z,74.21
2023-01-31T18:32:06.198Z,73.08
2023-01-31T18:37:13.612Z,72.35
2023-01-31T18:42:14.570Z,72.45
2023-01-31T18:47:16.183Z,72.54
2023-01-31T18:52:18.474Z,72.12
2023-01-31T18:57:19.227Z,71.58
2023-01-31T19:02:20.050Z,71.52
2023-01-31T19:07:22.247Z,71.83
2023-01-31T19:12:23.072Z,71.68
2023-01-31T19:17:23.823Z,71.67
2023-01-31T19:22:28.604Z,72.08
2023-01-31T19:27:29.379Z,70.97
2023-01-31T19:32:31.316Z,71.50
2023-01-31T19:37:33.390Z,71.96
2023-01-31T19:42:34.222Z,71.71
2023-01-31T19:47:34.913Z,71.44
2023-01-31T19:52:37.371Z,70.93
2023-01-31T19:57:38.107Z,70.36
2023-01-31T20:02:42.034Z,69.83
2023-01-31T20:07:44.099Z,71.72
2023-01-31T20:12:45.490Z,72.17
2023-01-31T20:17:46.375Z,72.41
2023-01-31T20:22:48.687Z,72.83
2023-01-31T20:27:49.609Z,76.37
2023-01-31T20:32:50.620Z,78.07
2023-01-31T20:37:52.749Z,80.00
2023-01-31T20:42:53.479Z,80.38
2023-01-31T20:47:54.180Z,79.05
2023-01-31T20:52:57.094Z,78.66
2023-01-31T20:57:58.637Z,77.28
2023-01-31T21:02:59.311Z,76.75
2023-01-31T21:08:01.341Z,75.67
2023-01-31T21:13:02.024Z,76.55
2023-01-31T21:18:02.741Z,79.10
2023-01-31T21:23:04.751Z,79.45
2023-01-31T21:28:05.914Z,79.34
2023-01-31T21:33:06.648Z,81.09
2023-01-31T21:38:08.648Z,83.20
2023-01-31T21:43:09.334Z,83.70
2023-01-31T21:48:30.265Z,83.59
2023-01-31T21:53:32.376Z,81.82
2023-01-31T21:58:33.805Z,81.35
2023-01-31T22:03:35.846Z,79.74
2023-01-31T22:08:37.897Z,79.13
2023-01-31T22:13:39.079Z,78.33
2023-01-31T22:18:41.419Z,77.26
2023-01-31T22:23:48.298Z,77.28
2023-01-31T22:28:49.921Z,76.40
2023-01-31T22:33:51.107Z,74.61
2023-01-31T22:38:54.077Z,74.92
2023-01-31T22:43:55.963Z,73.87
2023-01-31T22:48:57.484Z,74.18
2023-01-31T22:53:59.696Z,73.69
2023-01-31T22:59:02.565Z,72.88
2023-01-31T23:04:06.139Z,72.15
2023-01-31T23:09:08.342Z,71.70
2023-01-31T23:14:09.175Z,71.14
2023-01-31T23:19:10.124Z,71.96
2023-01-31T23:24:14.467Z,72.08
2023-01-31T23:29:15.610Z,72.45
2023-01-31T23:34:16.279Z,72.95
2023-01-31T23:39:18.253Z,72.04
2023-01-31T23:44:18.909Z,72.66
2023-01-31T23:49:19.587Z,72.24
2023-01-31T23:54:21.574Z,71.96
2023-01-31T23:59:22.206Z,72.19
